Time;durP1;ratioP1;P1;durP2;ratioP2;P2;SDS_P1;SDS_P2;PMS_P1;PMS_P2;Temp;Humidity;BMP_temperature;BMP_pressure;BME280_temperature;BME280_humidity;BME280_pressure;Samples;Min_cycle;Max_cycle;Signal;HPM_P1;HPM_P2
2022/06/01 00:04:03;;;;;;;13.17;9.97;;;;;9.00;100935.00;;;;10415893;28;20221;-81
2022/06/01 00:09:05;;;;;;;9.97;8.03;;;;;9.00;100919.00;;;;10409893;28;20225;-81
2022/06/01 00:14:08;;;;;;;11.37;6.93;;;;;9.00;100922.00;;;;10440020;28;20596;-81
2022/06/01 00:19:12;;;;;;;6.83;5.97;;;;;9.00;100912.00;;;;10448511;28;20224;-81
2022/06/01 00:24:14;;;;;;;6.53;5.57;;;;;9.00;100918.00;;;;10433679;28;20190;-79
2022/06/01 00:29:16;;;;;;;7.20;5.47;;;;;8.90;100917.00;;;;10403804;28;20225;-81
2022/06/01 00:34:18;;;;;;;9.37;5.67;;;;;8.80;100925.00;;;;10448819;28;20229;-80
2022/06/01 00:39:20;;;;;;;8.50;6.07;;;;;8.70;100925.00;;;;10433021;28;20222;-81
2022/06/01 00:44:22;;;;;;;8.23;5.83;;;;;8.70;100918.00;;;;10445028;28;20560;-81
2022/06/01 00:49:24;;;;;;;12.73;6.37;;;;;8.60;100928.00;;;;10428451;28;20205;-80
2022/06/01 00:54:27;;;;;;;7.33;5.27;;;;;8.50;100913.00;;;;10447445;28;20284;-81
2022/06/01 00:59:33;;;;;;;7.30;4.87;;;;;8.50;100920.00;;;;10426076;28;20225;-81
2022/06/01 01:04:38;;;;;;;7.47;4.63;;;;;8.50;100923.00;;;;10446144;28;20228;-81
2022/06/01 01:09:41;;;;;;;6.30;4.50;;;;;8.40;100919.00;;;;10431943;28;20916;-81
2022/06/01 01:14:44;;;;;;;7.87;4.40;;;;;8.40;100923.00;;;;10446485;28;20194;-81
2022/06/01 01:19:52;;;;;;;5.23;4.43;;;;;8.40;100929.00;;;;10444042;28;20224;-80
2022/06/01 01:25:30;;;;;;;6.43;4.20;;;;;8.30;100926.00;;;;10442853;28;20217;-81
2022/06/01 01:30:37;;;;;;;5.53;4.50;;;;;8.20;100931.00;;;;10434690;28;20204;-81
2022/06/01 01:35:41;;;;;;;10.97;5.20;;;;;8.10;100934.00;;;;10455769;28;20661;-81
2022/06/01 01:40:43;;;;;;;7.80;4.10;;;;;8.10;100928.00;;;;10469593;28;20221;-81
2022/06/01 01:45:45;;;;;;;5.50;4.40;;;;;8.10;100927.00;;;;10425964;28;20209;-81
2022/06/01 01:50:47;;;;;;;8.13;4.80;;;;;8.10;100936.00;;;;10437331;28;20223;-81
2022/06/01 01:56:00;;;;;;;5.33;4.83;;;;;8.00;100932.00;;;;10425499;28;20193;-81
2022/06/01 02:01:30;;;;;;;7.53;4.80;;;;;8.00;100931.00;;;;10437440;28;20220;-81
2022/06/01 02:06:40;;;;;;;10.00;4.70;;;;;8.00;100920.00;;;;10442624;28;20803;-81
2022/06/01 02:17:18;;;;;;;9.07;4.57;;;;;8.10;100921.00;;;;10461026;28;20205;-81
2022/06/01 02:22:21;;;;;;;4.30;3.90;;;;;8.10;100916.00;;;;10427275;28;20542;-81
2022/06/01 02:27:24;;;;;;;5.67;4.27;;;;;8.00;100913.00;;;;10441629;28;20192;-81
2022/06/01 02:32:28;;;;;;;6.00;4.67;;;;;8.00;100920.00;;;;10457723;28;20212;-82
2022/06/01 02:37:31;;;;;;;5.47;3.70;;;;;7.90;100905.00;;;;10424413;28;20206;-81
2022/06/01 02:42:33;;;;;;;9.63;4.47;;;;;7.80;100907.00;;;;10416452;28;20236;-81
2022/06/01 02:47:38;;;;;;;11.70;4.70;;;;;7.80;100904.00;;;;10453511;28;20221;-81
2022/06/01 02:52:41;;;;;;;5.73;3.93;;;;;7.80;100902.00;;;;10458010;28;20221;-81
2022/06/01 02:57:43;;;;;;;5.93;3.93;;;;;7.80;100899.00;;;;10458012;28;20197;-81
2022/06/01 03:02:48;;;;;;;7.57;5.10;;;;;7.80;100910.00;;;;10449301;28;20229;-81
2022/06/01 03:07:51;;;;;;;8.30;4.23;;;;;7.80;100910.00;;;;10416540;28;20198;-81
2022/06/01 03:12:55;;;;;;;5.50;4.53;;;;;7.70;100915.00;;;;10444635;28;20617;-81
2022/06/01 03:17:57;;;;;;;7.27;4.40;;;;;7.70;100910.00;;;;10455566;28;20726;-81
2022/06/01 03:23:00;;;;;;;5.90;4.43;;;;;7.70;100919.00;;;;10475112;28;20288;-81
2022/06/01 03:28:05;;;;;;;10.50;4.47;;;;;7.60;100913.00;;;;10443060;28;20790;-81
2022/06/01 03:33:07;;;;;;;7.93;4.07;;;;;7.60;100927.00;;;;10458628;28;20750;-81
2022/06/01 03:38:09;;;;;;;5.37;3.40;;;;;7.60;100924.00;;;;10438339;28;20221;-81
2022/06/01 03:43:12;;;;;;;10.77;4.93;;;;;7.60;100922.00;;;;10440731;28;20205;-81
2022/06/01 03:48:14;;;;;;;9.47;5.27;;;;;7.60;100924.00;;;;10431548;28;20639;-81
2022/06/01 03:53:16;;;;;;;6.90;4.57;;;;;7.60;100924.00;;;;10413845;28;20228;-81
2022/06/01 03:58:21;;;;;;;8.07;4.80;;;;;7.80;100933.00;;;;10463505;28;20611;-80
2022/06/01 04:03:23;;;;;;;7.97;4.90;;;;;7.90;100923.00;;;;10424917;28;20734;-80
2022/06/01 04:08:25;;;;;;;10.43;5.60;;;;;8.10;100921.00;;;;10420044;28;20193;-80
2022/06/01 04:13:28;;;;;;;11.43;5.43;;;;;8.40;100920.00;;;;10436886;28;20217;-81
2022/06/01 04:18:30;;;;;;;10.23;5.70;;;;;8.60;100929.00;;;;10425913;28;20317;-80
2022/06/01 04:23:33;;;;;;;9.20;5.27;;;;;8.90;100924.00;;;;10436345;28;20244;-79
2022/06/01 04:28:35;;;;;;;13.83;6.70;;;;;9.20;100931.00;;;;10415136;28;20198;-79
2022/06/01 04:33:39;;;;;;;14.13;6.63;;;;;9.40;100938.00;;;;10408074;28;20672;-80
2022/06/01 04:38:41;;;;;;;11.83;7.20;;;;;9.60;100927.00;;;;10440635;28;20276;-79
2022/06/01 04:43:43;;;;;;;18.23;7.83;;;;;9.90;100937.00;;;;10450273;28;20202;-79
2022/06/01 04:48:45;;;;;;;17.50;8.17;;;;;10.10;100937.00;;;;10451508;28;20190;-80
2022/06/01 04:53:47;;;;;;;9.27;6.93;;;;;10.30;100938.00;;;;10464160;28;20671;-80
2022/06/01 04:58:49;;;;;;;14.77;7.00;;;;;10.50;100934.00;;;;10434530;28;20243;-79
2022/06/01 05:03:51;;;;;;;15.70;7.43;;;;;10.50;100940.00;;;;10447171;28;20223;-79
2022/06/01 05:08:54;;;;;;;11.37;6.43;;;;;10.60;100948.00;;;;10441828;28;20719;-78
2022/06/01 05:13:55;;;;;;;12.97;7.17;;;;;10.90;100934.00;;;;10412455;28;20199;-80
2022/06/01 05:18:58;;;;;;;19.17;8.63;;;;;11.90;100945.00;;;;10438404;28;20461;-79
2022/06/01 05:24:00;;;;;;;14.90;8.27;;;;;12.90;100942.00;;;;10447522;28;20201;-79
2022/06/01 05:29:02;;;;;;;12.97;7.90;;;;;13.60;100950.00;;;;10459639;28;20289;-79
2022/06/01 05:34:04;;;;;;;13.83;7.03;;;;;14.50;100954.00;;;;10444191;28;20220;-79
2022/06/01 05:39:06;;;;;;;14.73;6.80;;;;;14.30;100958.00;;;;10463961;28;20971;-79
2022/06/01 05:44:08;;;;;;;13.83;6.07;;;;;14.20;100955.00;;;;10432970;28;20202;-79
2022/06/01 05:49:11;;;;;;;11.60;5.73;;;;;14.30;100950.00;;;;10429149;28;20209;-80
2022/06/01 05:54:14;;;;;;;8.03;5.37;;;;;14.40;100953.00;;;;10459319;28;20206;-80
2022/06/01 05:59:16;;;;;;;11.67;5.60;;;;;14.30;100952.00;;;;10443643;28;20222;-79
2022/06/01 06:04:18;;;;;;;10.73;5.73;;;;;14.30;100958.00;;;;10449759;28;20221;-80
2022/06/01 06:09:24;;;;;;;8.57;4.97;;;;;14.10;100951.00;;;;10445774;28;20276;-79
2022/06/01 06:14:26;;;;;;;11.97;6.83;;;;;14.30;100959.00;;;;10447503;28;20224;-79
2022/06/01 06:19:29;;;;;;;10.20;5.80;;;;;15.30;100962.00;;;;10436380;28;20213;-80
2022/06/01 06:24:31;;;;;;;9.97;5.17;;;;;15.10;100982.00;;;;10440894;28;20216;-80
2022/06/01 06:29:33;;;;;;;7.83;5.43;;;;;15.80;100983.00;;;;10443355;28;20259;-79
2022/06/01 06:34:35;;;;;;;8.70;4.60;;;;;16.70;100985.00;;;;10421875;28;20682;-79
2022/06/01 06:39:37;;;;;;;10.00;5.30;;;;;17.30;100993.00;;;;10449605;28;20217;-80
2022/06/01 06:44:39;;;;;;;9.65;5.15;;;;;17.70;100984.00;;;;10423682;28;20304;-80
2022/06/01 06:49:41;;;;;;;8.95;4.38;;;;;17.90;100989.00;;;;10444077;28;20202;-79
2022/06/01 06:54:42;;;;;;;10.95;4.72;;;;;18.40;100989.00;;;;10427823;28;20198;-80
2022/06/01 06:59:44;;;;;;;6.68;4.00;;;;;19.00;101003.00;;;;10415247;28;20236;-79
2022/06/01 07:04:47;;;;;;;9.02;4.15;;;;;19.00;100996.00;;;;10420275;28;20214;-79
2022/06/01 07:09:50;;;;;;;6.82;4.28;;;;;18.50;101013.00;;;;10438769;28;20205;-80
2022/06/01 07:14:53;;;;;;;6.03;4.28;;;;;18.60;101006.00;;;;10465354;28;20493;-79
2022/06/01 07:19:55;;;;;;;11.65;4.53;;;;;18.40;101008.00;;;;10448455;28;20217;-80
2022/06/01 07:24:58;;;;;;;9.82;4.40;;;;;19.30;101012.00;;;;10418246;28;20197;-80
2022/06/01 07:30:00;;;;;;;9.85;4.45;;;;;20.20;101015.00;;;;10427074;28;20213;-80
2022/06/01 07:35:05;;;;;;;8.70;4.50;;;;;20.90;101015.00;;;;10446886;28;20196;-80
2022/06/01 07:45:28;;;;;;;7.90;4.13;;;;;20.90;101018.00;;;;10448771;28;20193;-80
2022/06/01 07:50:30;;;;;;;10.95;4.15;;;;;21.20;101009.00;;;;10440420;28;20206;-80
2022/06/01 07:55:47;;;;;;;5.63;4.30;;;;;21.60;101027.00;;;;10464802;28;20762;-80
2022/06/01 08:00:49;;;;;;;5.50;3.80;;;;;20.70;101024.00;;;;10454868;28;20213;-80
2022/06/01 08:05:51;;;;;;;6.65;3.88;;;;;19.90;101031.00;;;;10455889;28;20213;-80
2022/06/01 08:10:53;;;;;;;4.93;3.35;;;;;20.00;101025.00;;;;10458034;28;20194;-79
2022/06/01 08:15:55;;;;;;;7.85;3.90;;;;;22.60;101025.00;;;;10492829;28;20925;-79
2022/06/01 08:20:57;;;;;;;4.97;3.55;;;;;23.80;101024.00;;;;10487485;28;20209;-77
2022/06/01 08:26:00;;;;;;;5.88;3.50;;;;;25.40;101030.00;;;;10454890;28;20225;-80
2022/06/01 08:31:01;;;;;;;6.03;3.40;;;;;25.60;101047.00;;;;10471855;28;20193;-80
2022/06/01 08:36:04;;;;;;;5.40;2.97;;;;;24.40;101050.00;;;;10475150;28;20240;-80
2022/06/01 08:41:09;;;;;;;3.72;2.13;;;;;22.80;101049.00;;;;10490234;28;20221;-79
2022/06/01 08:46:13;;;;;;;3.63;2.30;;;;;21.90;101049.00;;;;10453140;28;20205;-79
2022/06/01 08:51:19;;;;;;;3.72;2.85;;;;;22.60;101052.00;;;;10422012;28;20229;-79
2022/06/01 08:56:35;;;;;;;3.70;2.20;;;;;22.60;101051.00;;;;10463622;28;20206;-79
2022/06/01 09:01:37;;;;;;;3.08;2.58;;;;;22.30;101050.00;;;;10451844;28;20253;-80
2022/06/01 09:06:47;;;;;;;4.55;2.47;;;;;22.20;101048.00;;;;10448504;28;20579;-79
2022/06/01 09:11:49;;;;;;;2.92;2.65;;;;;23.10;101051.00;;;;10432554;28;20190;-79
2022/06/01 09:16:55;;;;;;;3.70;2.00;;;;;24.40;101042.00;;;;10463977;28;20546;-79
2022/06/01 09:27:54;;;;;;;2.92;2.13;;;;;24.50;101051.00;;;;10466861;28;20232;-79
2022/06/01 09:33:12;;;;;;;2.47;1.42;;;;;25.00;101047.00;;;;10458494;28;20261;-80
2022/06/01 09:38:34;;;;;;;4.38;1.85;;;;;23.80;101048.00;;;;10472021;28;20201;-81
2022/06/01 09:43:40;;;;;;;2.78;1.60;;;;;24.80;101039.00;;;;10421314;28;20285;-80
2022/06/01 09:48:46;;;;;;;3.63;1.92;;;;;24.60;101052.00;;;;10440051;28;20250;-80
2022/06/01 09:53:52;;;;;;;2.35;1.50;;;;;24.20;101045.00;;;;10439188;28;20648;-81
2022/06/01 10:10:05;;;;;;;5.28;1.70;;;;;26.40;101025.00;;;;10456570;28;20205;-80
2022/06/01 10:15:42;;;;;;;2.35;1.60;;;;;27.20;101028.00;;;;10423220;28;20212;-80
2022/06/01 10:20:51;;;;;;;2.28;1.90;;;;;28.80;101018.00;;;;10440817;28;20213;-80
2022/06/01 10:26:00;;;;;;;2.75;1.70;;;;;28.10;101017.00;;;;10455816;28;20200;-81
2022/06/01 10:31:04;;;;;;;2.55;2.03;;;;;29.40;101028.00;;;;10438597;28;20286;-80
2022/06/01 10:36:16;;;;;;;2.78;2.05;;;;;26.90;101047.00;;;;10461717;28;20232;-81
2022/06/01 10:41:32;;;;;;;3.22;2.00;;;;;23.50;101052.00;;;;10445536;28;20733;-80
2022/06/01 10:47:02;;;;;;;5.03;2.42;;;;;19.50;101063.00;;;;10440607;28;20196;-80
2022/06/01 10:52:16;;;;;;;5.90;2.75;;;;;18.20;101057.00;;;;10433347;28;20640;-80
2022/06/01 10:57:20;;;;;;;4.05;3.13;;;;;19.30;101055.00;;;;10456854;28;20651;-80
2022/06/01 11:02:55;;;;;;;6.10;3.40;;;;;19.70;101051.00;;;;10426439;28;20288;-80
2022/06/01 11:07:57;;;;;;;5.07;3.10;;;;;22.40;101049.00;;;;10426876;28;20205;-80
2022/06/01 11:13:18;;;;;;;6.10;3.15;;;;;23.40;101045.00;;;;10421329;28;20204;-80
2022/06/01 11:18:47;;;;;;;4.93;2.03;;;;;23.80;101045.00;;;;10439853;28;20224;-80
2022/06/01 11:24:16;;;;;;;3.08;2.17;;;;;26.50;101035.00;;;;10430977;28;20300;-80
2022/06/01 11:29:45;;;;;;;6.40;2.60;;;;;27.90;101049.00;;;;10455291;28;20718;-80
2022/06/01 11:34:53;;;;;;;3.67;1.42;;;;;26.40;101049.00;;;;10433075;28;20513;-80
2022/06/01 11:40:15;;;;;;;2.45;2.25;;;;;24.70;101059.00;;;;10449114;28;20205;-81
2022/06/01 11:45:27;;;;;;;2.28;1.80;;;;;25.00;101064.00;;;;10464967;28;20217;-81
2022/06/01 11:50:34;;;;;;;3.95;2.25;;;;;23.30;101063.00;;;;10454626;28;20291;-81
2022/06/01 11:55:37;;;;;;;2.92;2.45;;;;;22.30;101056.00;;;;10468072;28;20193;-81
2022/06/01 12:00:52;;;;;;;2.65;2.30;;;;;20.90;101064.00;;;;10454600;28;20206;-80
2022/06/01 12:06:12;;;;;;;7.07;2.20;;;;;20.90;101069.00;;;;10454403;28;20233;-81
2022/06/01 12:11:43;;;;;;;2.30;2.00;;;;;19.60;101084.00;;;;10454053;28;20223;-81
2022/06/01 12:16:45;;;;;;;3.25;2.65;;;;;18.40;101099.00;;;;10461309;28;20289;-80
2022/06/01 12:21:58;;;;;;;3.47;2.30;;;;;18.00;101093.00;;;;10477205;28;20239;-81
2022/06/01 12:32:29;;;;;;;4.03;2.45;;;;;19.70;101074.00;;;;10484413;28;20193;-81
2022/06/01 12:37:51;;;;;;;2.45;2.05;;;;;20.70;101070.00;;;;10458478;28;20295;-80
2022/06/01 12:42:57;;;;;;;1.90;1.48;;;;;21.30;101080.00;;;;10450415;28;20573;-81
2022/06/01 12:48:04;;;;;;;4.25;2.10;;;;;22.10;101075.00;;;;10436519;28;20209;-80
2022/06/01 12:53:16;;;;;;;3.17;2.38;;;;;22.60;101089.00;;;;10464237;28;20582;-80
2022/06/01 12:58:22;;;;;;;3.85;2.88;;;;;23.20;101068.00;;;;10454435;28;20185;-80
2022/06/01 13:03:29;;;;;;;3.28;2.95;;;;;23.40;101080.00;;;;10471327;28;20213;-81
2022/06/01 13:08:37;;;;;;;1.90;1.52;;;;;23.40;101099.00;;;;10470951;28;20186;-79
2022/06/01 13:13:43;;;;;;;3.85;1.55;;;;;22.90;101104.00;;;;10460196;28;20208;-81
2022/06/01 13:18:46;;;;;;;1.85;1.70;;;;;22.40;101088.00;;;;10440732;28;20217;-81
2022/06/01 13:24:01;;;;;;;3.85;1.70;;;;;23.40;101081.00;;;;10458431;28;20237;-80
2022/06/01 13:29:18;;;;;;;2.88;1.63;;;;;24.50;101095.00;;;;10454163;28;20186;-80
2022/06/01 13:34:49;;;;;;;1.60;1.50;;;;;24.90;101080.00;;;;10444002;28;20277;-80
2022/06/01 13:39:56;;;;;;;1.77;1.52;;;;;25.30;101088.00;;;;10458872;28;20214;-81
2022/06/01 13:45:04;;;;;;;1.75;1.40;;;;;26.60;101096.00;;;;10457865;28;20194;-80
2022/06/01 13:50:15;;;;;;;2.30;2.10;;;;;24.90;101103.00;;;;10450588;28;20190;-81
2022/06/01 13:55:28;;;;;;;3.97;2.58;;;;;22.50;101114.00;;;;10476577;28;20227;-82
2022/06/01 14:00:38;;;;;;;2.60;2.40;;;;;21.50;101114.00;;;;10431797;28;20195;-82
2022/06/01 14:05:46;;;;;;;4.88;2.50;;;;;20.70;101121.00;;;;10453636;28;20241;-81
2022/06/01 14:10:50;;;;;;;4.18;2.55;;;;;20.30;101117.00;;;;10438173;28;20185;-81
2022/06/01 14:15:53;;;;;;;4.22;2.70;;;;;20.90;101115.00;;;;10452737;28;20213;-80
2022/06/01 14:20:55;;;;;;;2.72;2.08;;;;;19.80;101095.00;;;;10449594;28;20706;-81
2022/06/01 14:31:34;;;;;;;3.92;2.15;;;;;19.80;101112.00;;;;10467502;28;20640;-82
2022/06/01 14:36:38;;;;;;;4.63;2.25;;;;;22.20;101114.00;;;;10448265;28;20218;-81
2022/06/01 14:41:42;;;;;;;3.97;2.45;;;;;20.60;101113.00;;;;10448399;28;20209;-82
2022/06/01 14:46:45;;;;;;;2.13;2.00;;;;;20.80;101093.00;;;;10436915;28;20198;-81
2022/06/01 14:51:55;;;;;;;3.28;1.63;;;;;25.30;101122.00;;;;10443124;28;20492;-81
2022/06/01 14:56:59;;;;;;;1.45;1.02;;;;;24.70;101092.00;;;;10471319;28;20251;-79
2022/06/01 15:02:01;;;;;;;1.85;1.30;;;;;24.80;101111.00;;;;10467568;28;20730;-82
2022/06/01 15:07:05;;;;;;;2.58;1.48;;;;;27.40;101134.00;;;;10435037;28;20205;-80
2022/06/01 15:12:08;;;;;;;2.47;1.33;;;;;22.70;101109.00;;;;10453303;28;20224;-81
2022/06/01 15:17:17;;;;;;;1.63;1.10;;;;;26.40;101119.00;;;;10435073;28;20738;-81
2022/06/01 15:22:20;;;;;;;1.02;0.73;;;;;29.50;101120.00;;;;10447712;28;20811;-80
2022/06/01 15:27:23;;;;;;;1.48;1.02;;;;;25.20;101146.00;;;;10449752;28;20201;-80
2022/06/01 15:43:06;;;;;;;2.15;1.02;;;;;21.20;101153.00;;;;10484865;28;20247;-80
2022/06/01 15:48:10;;;;;;;2.53;1.13;;;;;22.10;101146.00;;;;10465992;28;20193;-80
2022/06/01 15:53:12;;;;;;;1.55;1.10;;;;;20.70;101159.00;;;;10443587;28;20243;-79
2022/06/01 15:58:14;;;;;;;1.85;1.08;;;;;20.30;101146.00;;;;10465620;28;20198;-80
2022/06/01 16:03:17;;;;;;;1.45;1.08;;;;;20.20;101159.00;;;;10450088;28;20304;-80
2022/06/01 16:08:19;;;;;;;2.63;1.20;;;;;20.00;101160.00;;;;10440375;28;20194;-81
2022/06/01 16:13:21;;;;;;;3.10;1.40;;;;;19.60;101163.00;;;;10459287;28;20190;-80
2022/06/01 16:18:23;;;;;;;2.00;1.10;;;;;19.20;101173.00;;;;10453506;28;20221;-80
2022/06/01 16:23:25;;;;;;;3.05;1.30;;;;;19.10;101169.00;;;;10451197;28;20553;-80
2022/06/01 16:28:27;;;;;;;1.58;1.05;;;;;18.70;101168.00;;;;10439743;28;20541;-80
2022/06/01 16:33:32;;;;;;;1.23;0.80;;;;;18.90;101164.00;;;;10465577;28;20651;-81
2022/06/01 16:38:35;;;;;;;1.55;1.40;;;;;18.90;101177.00;;;;10487046;28;20186;-81
2022/06/01 16:43:40;;;;;;;1.85;1.63;;;;;18.60;101178.00;;;;10459304;28;20218;-80
2022/06/01 16:48:43;;;;;;;4.95;1.25;;;;;18.40;101181.00;;;;10479565;28;20194;-80
2022/06/01 16:53:45;;;;;;;1.75;1.30;;;;;18.20;101184.00;;;;10463120;28;20640;-81
2022/06/01 16:58:47;;;;;;;1.20;1.10;;;;;18.10;101191.00;;;;10511346;28;20201;-81
2022/06/01 17:03:49;;;;;;;1.02;0.80;;;;;18.20;101192.00;;;;10453827;28;20213;-81
2022/06/01 17:08:53;;;;;;;1.58;1.00;;;;;18.20;101194.00;;;;10466234;28;20680;-81
2022/06/01 17:13:55;;;;;;;1.85;1.42;;;;;18.10;101200.00;;;;10449619;28;20266;-82
2022/06/01 17:18:59;;;;;;;4.38;1.80;;;;;17.90;101208.00;;;;10478830;28;20243;-82
2022/06/01 17:24:01;;;;;;;4.15;1.42;;;;;17.50;101217.00;;;;10468541;28;20213;-81
2022/06/01 17:29:05;;;;;;;3.70;1.75;;;;;17.30;101215.00;;;;10437601;28;20190;-82
2022/06/01 17:34:07;;;;;;;2.65;1.08;;;;;17.20;101217.00;;;;10451987;28;20217;-80
2022/06/01 17:39:09;;;;;;;1.92;1.20;;;;;17.10;101218.00;;;;10441014;28;20216;-81
2022/06/01 17:44:11;;;;;;;1.77;1.00;;;;;17.00;101218.00;;;;10472733;28;20201;-81
2022/06/01 17:49:14;;;;;;;1.15;0.95;;;;;16.90;101236.00;;;;10449489;28;20193;-81
2022/06/01 17:54:16;;;;;;;1.30;0.93;;;;;16.90;101237.00;;;;10442403;28;20194;-81
2022/06/01 17:59:25;;;;;;;1.20;0.90;;;;;16.70;101246.00;;;;10450740;28;20276;-82
2022/06/01 18:04:27;;;;;;;2.05;1.23;;;;;16.60;101256.00;;;;10489720;28;20289;-81
2022/06/01 18:09:30;;;;;;;1.40;1.10;;;;;16.50;101258.00;;;;10442455;28;20207;-82
2022/06/01 18:14:32;;;;;;;1.90;1.30;;;;;16.30;101257.00;;;;10442602;28;20235;-82
2022/06/01 18:19:34;;;;;;;1.80;1.23;;;;;16.30;101271.00;;;;10453806;28;20200;-82
2022/06/01 18:24:37;;;;;;;1.73;1.47;;;;;16.20;101274.00;;;;10440128;28;20220;-82
2022/06/01 18:29:39;;;;;;;1.70;1.60;;;;;16.10;101280.00;;;;10439697;28;20198;-82
2022/06/01 18:34:41;;;;;;;1.97;1.83;;;;;16.00;101286.00;;;;10453493;28;20204;-81
2022/06/01 18:39:43;;;;;;;2.40;2.20;;;;;15.90;101283.00;;;;10431873;28;20208;-82
2022/06/01 18:44:45;;;;;;;2.83;2.30;;;;;15.80;101288.00;;;;10474978;28;20217;-82
2022/06/01 18:49:48;;;;;;;2.87;2.67;;;;;15.60;101287.00;;;;10442183;28;20235;-82
2022/06/01 18:54:50;;;;;;;4.10;3.30;;;;;15.50;101282.00;;;;10437714;28;20186;-82
2022/06/01 19:05:13;;;;;;;6.77;4.60;;;;;15.10;101292.00;;;;10477140;28;20224;-80
2022/06/01 19:10:15;;;;;;;6.33;4.50;;;;;15.00;101304.00;;;;10477304;28;20208;-80
2022/06/01 19:15:18;;;;;;;8.17;4.90;;;;;15.00;101302.00;;;;10454285;28;20205;-81
2022/06/01 19:20:20;;;;;;;6.33;5.30;;;;;14.90;101311.00;;;;10453907;28;20198;-81
2022/06/01 19:25:22;;;;;;;5.37;4.80;;;;;14.70;101315.00;;;;10448417;28;20198;-80
2022/06/01 19:30:25;;;;;;;5.87;4.93;;;;;14.40;101316.00;;;;10447003;28;20203;-81
2022/06/01 19:35:27;;;;;;;6.97;5.10;;;;;14.10;101331.00;;;;10426118;28;20200;-81
2022/06/01 19:45:52;;;;;;;7.40;5.13;;;;;13.70;101338.00;;;;10461910;28;20198;-82
2022/06/01 19:50:54;;;;;;;7.77;5.80;;;;;13.50;101361.00;;;;10471060;28;20264;-82
2022/06/01 19:55:56;;;;;;;6.10;5.47;;;;;13.40;101367.00;;;;10462543;28;20190;-81
2022/06/01 20:00:59;;;;;;;5.30;4.80;;;;;13.20;101364.00;;;;10451357;28;20210;-82
2022/06/01 20:06:02;;;;;;;6.77;4.90;;;;;12.90;101373.00;;;;10466266;28;20216;-82
2022/06/01 20:16:25;;;;;;;8.53;5.03;;;;;12.40;101378.00;;;;10483632;28;20197;-82
2022/06/01 20:21:27;;;;;;;7.13;5.53;;;;;12.20;101384.00;;;;10472054;28;20206;-82
2022/06/01 20:26:29;;;;;;;6.33;5.67;;;;;12.20;101396.00;;;;10451220;28;20212;-81
2022/06/01 20:31:32;;;;;;;6.67;5.23;;;;;12.10;101391.00;;;;10464150;28;20288;-81
2022/06/01 20:36:35;;;;;;;6.33;5.07;;;;;12.00;101394.00;;;;10464673;28;20194;-81
2022/06/01 20:41:37;;;;;;;6.90;5.03;;;;;11.90;101403.00;;;;10456138;28;20249;-82
2022/06/01 20:46:41;;;;;;;4.77;4.20;;;;;11.70;101410.00;;;;10435883;28;20194;-82
2022/06/01 20:51:44;;;;;;;4.47;4.07;;;;;11.50;101406.00;;;;10480952;28;20186;-81
2022/06/01 20:56:46;;;;;;;6.13;3.80;;;;;11.30;101400.00;;;;10454847;28;20214;-82
2022/06/01 21:01:49;;;;;;;5.77;4.27;;;;;11.20;101414.00;;;;10440775;28;20221;-81
2022/06/01 21:06:53;;;;;;;5.30;4.40;;;;;11.00;101407.00;;;;10460386;28;20313;-82
2022/06/01 21:12:18;;;;;;;5.77;4.70;;;;;10.90;101403.00;;;;10438141;28;20191;-82
2022/06/01 21:17:19;;;;;;;6.20;4.77;;;;;10.80;101402.00;;;;10460106;28;20351;-82
2022/06/01 21:22:21;;;;;;;6.07;4.63;;;;;10.60;101411.00;;;;10438730;28;20202;-82
2022/06/01 21:27:24;;;;;;;4.73;4.23;;;;;10.50;101407.00;;;;10440678;28;20212;-82
2022/06/01 21:32:26;;;;;;;8.27;5.00;;;;;10.40;101407.00;;;;10436868;28;20197;-81
2022/06/01 21:37:28;;;;;;;5.80;4.97;;;;;10.30;101403.00;;;;10458754;28;20263;-82
2022/06/01 21:42:32;;;;;;;8.30;5.60;;;;;10.10;101411.00;;;;10435932;28;20238;-82
2022/06/01 21:47:34;;;;;;;7.20;5.60;;;;;10.00;101404.00;;;;10453481;28;20194;-81
2022/06/01 21:52:39;;;;;;;7.67;5.57;;;;;9.90;101416.00;;;;10461955;28;20208;-82
2022/06/01 21:57:42;;;;;;;5.97;5.30;;;;;9.80;101428.00;;;;10439532;28;20194;-82
2022/06/01 22:02:44;;;;;;;5.73;5.13;;;;;9.80;101427.00;;;;10481477;28;20276;-81
2022/06/01 22:07:47;;;;;;;9.43;4.90;;;;;9.70;101427.00;;;;10439109;28;20190;-81
2022/06/01 22:12:49;;;;;;;5.90;4.93;;;;;9.60;101429.00;;;;10420022;28;20244;-81
2022/06/01 22:17:51;;;;;;;7.57;4.70;;;;;9.50;101436.00;;;;10442331;28;20206;-81
2022/06/01 22:22:54;;;;;;;7.13;5.00;;;;;9.40;101434.00;;;;10424792;28;20213;-82
2022/06/01 22:27:58;;;;;;;6.63;5.20;;;;;9.40;101436.00;;;;10465769;28;20266;-83
2022/06/01 22:33:00;;;;;;;7.37;4.93;;;;;9.20;101438.00;;;;10461578;28;20224;-83
2022/06/01 22:38:04;;;;;;;8.50;6.57;;;;;9.10;101432.00;;;;10487646;28;20193;-82
2022/06/01 22:43:06;;;;;;;10.83;7.20;;;;;9.10;101442.00;;;;10472824;28;20209;-83
2022/06/01 22:48:25;;;;;;;8.47;6.87;;;;;9.00;101444.00;;;;10465459;28;20278;-83
2022/06/01 22:53:32;;;;;;;8.07;7.27;;;;;9.00;101453.00;;;;10449513;28;20219;-83
2022/06/01 22:58:35;;;;;;;7.93;6.67;;;;;9.00;101459.00;;;;10479623;28;20232;-84
2022/06/01 23:03:39;;;;;;;11.87;7.47;;;;;8.90;101463.00;;;;10486211;28;20224;-83
2022/06/01 23:08:41;;;;;;;9.50;7.30;;;;;8.80;101463.00;;;;10491393;28;20189;-83
2022/06/01 23:13:44;;;;;;;7.20;6.50;;;;;8.80;101456.00;;;;10454818;28;20193;-83
2022/06/01 23:18:46;;;;;;;8.17;7.13;;;;;8.70;101466.00;;;;10479971;28;20206;-82
2022/06/01 23:23:48;;;;;;;7.87;7.07;;;;;8.70;101457.00;;;;10452690;28;20512;-83
2022/06/01 23:28:53;;;;;;;9.50;7.20;;;;;8.60;101458.00;;;;10442157;28;20213;-84
2022/06/01 23:34:13;;;;;;;8.30;6.90;;;;;8.60;101461.00;;;;10460331;28;20181;-83
2022/06/01 23:40:03;;;;;;;6.53;5.73;;;;;8.50;101464.00;;;;10466482;28;20189;-82
2022/06/01 23:45:32;;;;;;;11.20;7.20;;;;;8.30;101465.00;;;;10424405;28;20224;-82
2022/06/01 23:50:42;;;;;;;9.03;6.93;;;;;8.20;101459.00;;;;10464040;28;20207;-83
2022/06/01 23:56:01;;;;;;;8.77;5.70;;;;;8.20;101461.00;;;;10464858;28;20231;-84
